createdAt,value
2023-04-07T00:00:23.045Z,99972.69
2023-04-07T00:01:33.241Z,99973.62
2023-04-07T00:03:58.435Z,99980.42
2023-04-07T00:05:08.849Z,99983.66
2023-04-07T00:07:39.636Z,99988.45
2023-04-07T00:08:53.294Z,99993.73
2023-04-07T00:10:02.634Z,99986.75
2023-04-07T00:13:26.841Z,99978.97
2023-04-07T00:14:36.961Z,99989.52
2023-04-07T00:15:46.666Z,99982.62
2023-04-07T00:18:19.573Z,99980.38
2023-04-07T00:20:46.001Z,99980.28
2023-04-07T00:23:10.620Z,99979.53
2023-04-07T00:25:35.450Z,99982.20
2023-04-07T00:26:44.676Z,99993.41
2023-04-07T00:29:09.380Z,99990.03
2023-04-07T00:31:36.311Z,99985.54
2023-04-07T00:32:45.608Z,99983.47
2023-04-07T00:35:10.376Z,99990.03
2023-04-07T00:37:43.002Z,99989.34
2023-04-07T00:40:10.001Z,99989.42
2023-04-07T00:41:19.515Z,99992.70
2023-04-07T00:43:43.623Z,99993.83
2023-04-07T00:46:11.682Z,99991.25
2023-04-07T00:47:21.094Z,99991.06
2023-04-07T00:49:46.572Z,100003.06
2023-04-07T00:52:13.617Z,100004.84
2023-04-07T00:53:23.826Z,100010.13
2023-04-07T00:54:33.390Z,100006.60
2023-04-07T00:56:57.696Z,100001.60
2023-04-07T00:59:22.713Z,100005.39
2023-04-07T01:00:39.974Z,100022.11
2023-04-07T01:03:41.113Z,100012.62
2023-04-07T01:04:57.477Z,100027.54
2023-04-07T01:07:31.006Z,100015.47
2023-04-07T01:10:09.202Z,100014.77
2023-04-07T01:12:46.737Z,100022.95
2023-04-07T01:15:20.435Z,100023.05
2023-04-07T01:16:35.083Z,100029.77
2023-04-07T01:19:15.819Z,100023.13
2023-04-07T01:21:49.174Z,100027.36
2023-04-07T01:23:03.069Z,100032.27
2023-04-07T01:24:48.018Z,100037.61
2023-04-07T01:26:19.003Z,100030.35
2023-04-07T01:27:29.364Z,100033.02
2023-04-07T01:30:32.216Z,100037.02
2023-04-07T01:31:43.117Z,100040.19
2023-04-07T01:34:12.724Z,100039.92
2023-04-07T01:35:23.443Z,100041.48
2023-04-07T01:37:54.196Z,100042.09
2023-04-07T01:39:08.108Z,100041.20
2023-04-07T01:41:38.211Z,100048.11
2023-04-07T01:42:49.747Z,100047.97
2023-04-07T01:45:24.625Z,100048.51
2023-04-07T01:46:34.442Z,100048.31
2023-04-07T01:49:01.207Z,100042.49
2023-04-07T01:51:31.490Z,100044.19
2023-04-07T01:53:57.810Z,100049.98
2023-04-07T01:56:24.668Z,100053.36
2023-04-07T01:58:51.647Z,100050.42
2023-04-07T02:01:19.982Z,100053.72
2023-04-07T02:02:38.271Z,100064.89
2023-04-07T02:05:21.949Z,100048.91
2023-04-07T02:08:05.378Z,100054.83
2023-04-07T02:09:18.948Z,100055.36
2023-04-07T02:10:29.881Z,100054.34
2023-04-07T02:11:42.573Z,100054.16
2023-04-07T02:12:52.517Z,100052.78
2023-04-07T02:14:04.785Z,100054.83
2023-04-07T02:15:16.746Z,100056.39
2023-04-07T02:17:45.459Z,100050.20
2023-04-07T02:18:55.375Z,100056.12
2023-04-07T02:21:26.801Z,100063.55
2023-04-07T02:22:37.967Z,100058.70
2023-04-07T02:25:03.277Z,100060.70
2023-04-07T02:27:29.102Z,100067.87
2023-04-07T02:28:44.630Z,100067.52
2023-04-07T02:29:54.908Z,100065.69
2023-04-07T02:32:21.741Z,100063.47
2023-04-07T02:33:31.504Z,100065.78
2023-04-07T02:35:57.974Z,100071.56
2023-04-07T02:38:22.061Z,100064.31
2023-04-07T02:40:46.308Z,100062.26
2023-04-07T02:41:56.100Z,100076.20
2023-04-07T02:43:04.707Z,100072.59
2023-04-07T02:45:36.106Z,100071.16
2023-04-07T02:46:45.959Z,100078.78
2023-04-07T02:49:10.407Z,100065.02
2023-04-07T02:50:21.324Z,100076.29
2023-04-07T02:51:31.830Z,100081.55
2023-04-07T02:52:40.930Z,100078.02
2023-04-07T02:55:07.647Z,100077.44
2023-04-07T02:57:34.590Z,100078.38
2023-04-07T02:58:45.906Z,100075.44
2023-04-07T03:01:13.983Z,100073.83
2023-04-07T03:02:22.941Z,100075.17
2023-04-07T03:03:32.529Z,100083.19
2023-04-07T03:04:53.200Z,100083.10
2023-04-07T03:07:19.911Z,100083.55
2023-04-07T03:08:30.360Z,100087.86
2023-04-07T03:09:38.995Z,100093.34
2023-04-07T03:10:47.791Z,100092.67
2023-04-07T03:11:58.533Z,100083.77
2023-04-07T03:13:10.223Z,100095.25
2023-04-07T03:15:36.344Z,100096.64
2023-04-07T03:16:46.334Z,100100.77
2023-04-07T03:17:56.712Z,100100.85
2023-04-07T03:19:06.606Z,100110.56
2023-04-07T03:20:19.579Z,100104.38
2023-04-07T03:22:45.190Z,100101.98
2023-04-07T03:23:58.073Z,100114.13
2023-04-07T03:26:25.152Z,100103.35
2023-04-07T03:27:33.863Z,100110.28
2023-04-07T03:28:43.624Z,100111.22
2023-04-07T03:29:53.231Z,100116.73
2023-04-07T03:32:19.774Z,100117.02
2023-04-07T03:34:45.043Z,100117.19
2023-04-07T03:37:10.890Z,100119.95
2023-04-07T03:38:23.160Z,100128.52
2023-04-07T03:40:52.685Z,100112.11
2023-04-07T03:43:20.591Z,100126.65
2023-04-07T03:45:45.104Z,100127.84
2023-04-07T03:46:56.023Z,100125.81
2023-04-07T03:49:21.574Z,100135.05
2023-04-07T03:50:31.142Z,100133.82
2023-04-07T03:51:42.621Z,100132.80
2023-04-07T03:52:53.099Z,100138.91
2023-04-07T03:55:23.601Z,100134.66
2023-04-07T03:56:36.407Z,100136.95
2023-04-07T03:59:02.516Z,100146.28
2023-04-07T04:00:14.139Z,100149.50
2023-04-07T04:02:44.679Z,100154.28
2023-04-07T04:05:10.064Z,100147.30
2023-04-07T04:06:20.130Z,100154.92
2023-04-07T04:08:44.664Z,100160.39
2023-04-07T04:11:20.396Z,100163.69
2023-04-07T04:12:31.491Z,100164.16
2023-04-07T04:14:58.005Z,100161.82
2023-04-07T04:17:23.654Z,100160.63
2023-04-07T04:19:48.641Z,100170.97
2023-04-07T04:22:23.778Z,100168.22
2023-04-07T04:23:38.304Z,100170.52
2023-04-07T04:26:04.602Z,100170.67
2023-04-07T04:28:29.502Z,100171.52
2023-04-07T04:29:38.231Z,100177.34
2023-04-07T04:32:04.895Z,100175.75
2023-04-07T04:33:17.044Z,100176.48
2023-04-07T04:34:28.268Z,100182.55
2023-04-07T04:35:37.488Z,100183.14
2023-04-07T04:36:54.307Z,100187.38
2023-04-07T04:40:41.194Z,100189.08
2023-04-07T04:41:50.496Z,100184.22
2023-04-07T04:43:01.356Z,100184.14
2023-04-07T04:45:27.101Z,100185.20
2023-04-07T04:46:37.275Z,100194.34
2023-04-07T04:49:01.446Z,100200.23
2023-04-07T04:50:12.297Z,100199.70
2023-04-07T04:52:39.697Z,100189.63
2023-04-07T04:55:05.139Z,100197.23
2023-04-07T04:57:32.290Z,100202.75
2023-04-07T04:59:59.247Z,100203.03
2023-04-07T05:02:25.455Z,100207.60
2023-04-07T05:03:34.478Z,100208.33
2023-04-07T05:04:46.133Z,100209.87
2023-04-07T05:07:23.240Z,100205.20
2023-04-07T05:09:48.560Z,100218.81
2023-04-07T05:12:15.680Z,100218.10
2023-04-07T05:13:27.390Z,100213.87
2023-04-07T05:14:37.195Z,100224.50
2023-04-07T05:17:10.013Z,100219.78
2023-04-07T05:19:35.581Z,100229.39
2023-04-07T05:22:05.332Z,100237.98
2023-04-07T05:24:33.389Z,100232.63
2023-04-07T05:27:02.407Z,100240.50
2023-04-07T05:29:32.737Z,100242.01
2023-04-07T05:32:00.982Z,100242.80
2023-04-07T05:33:11.986Z,100255.61
2023-04-07T05:35:41.843Z,100252.38
2023-04-07T05:36:52.578Z,100258.30
2023-04-07T05:39:18.134Z,100258.41
2023-04-07T05:41:44.118Z,100248.70
2023-04-07T05:44:29.601Z,100261.77
2023-04-07T05:45:39.443Z,100262.92
2023-04-07T05:48:03.805Z,100258.89
2023-04-07T05:50:29.514Z,100256.91
2023-04-07T05:52:56.000Z,100265.11
2023-04-07T05:55:23.128Z,100260.23
2023-04-07T05:56:33.806Z,100270.41
2023-04-07T05:57:42.993Z,100268.96
2023-04-07T05:58:54.377Z,100267.58
2023-04-07T06:01:20.207Z,100259.14
2023-04-07T06:04:06.618Z,100270.83
2023-04-07T06:05:16.997Z,100278.44
2023-04-07T06:06:36.157Z,100278.35
2023-04-07T06:09:01.314Z,100272.61
2023-04-07T06:11:27.444Z,100270.70
2023-04-07T06:13:53.553Z,100278.49
2023-04-07T06:16:19.748Z,100272.55
2023-04-07T06:17:28.454Z,100283.10
2023-04-07T06:19:55.029Z,100280.41
2023-04-07T06:22:21.879Z,100284.05
2023-04-07T06:24:47.052Z,100288.20
2023-04-07T06:27:12.362Z,100283.47
2023-04-07T06:29:39.517Z,100290.78
2023-04-07T06:32:06.531Z,100295.59
2023-04-07T06:34:32.143Z,100295.04
2023-04-07T06:36:58.361Z,100295.75
2023-04-07T06:39:26.092Z,100301.78
2023-04-07T06:41:52.838Z,100307.86
2023-04-07T06:44:17.551Z,100300.59
2023-04-07T06:45:27.804Z,100307.84
2023-04-07T06:47:53.859Z,100304.25
2023-04-07T06:50:22.960Z,100306.58
2023-04-07T06:52:48.252Z,100310.75
2023-04-07T06:55:13.866Z,100309.53
2023-04-07T06:57:46.983Z,100312.27
2023-04-07T07:00:16.843Z,100311.64
2023-04-07T07:01:26.799Z,100318.27
2023-04-07T07:03:52.480Z,100312.73
2023-04-07T07:06:16.881Z,100314.73
2023-04-07T07:08:41.803Z,100305.56
2023-04-07T07:11:06.192Z,100312.40
2023-04-07T07:13:32.167Z,100312.02
2023-04-07T07:15:56.018Z,100319.75
2023-04-07T07:17:05.572Z,100324.94
2023-04-07T07:18:15.426Z,100324.40
2023-04-07T07:20:41.569Z,100319.89
2023-04-07T07:21:50.920Z,100323.23
2023-04-07T07:24:15.227Z,100317.31
2023-04-07T07:25:34.415Z,100320.99
2023-04-07T07:26:57.515Z,100317.19
2023-04-07T07:29:26.871Z,100315.78
2023-04-07T07:31:56.832Z,100317.71
2023-04-07T07:34:21.613Z,100316.33
2023-04-07T07:36:47.818Z,100323.12
2023-04-07T07:37:57.075Z,100316.98
2023-04-07T07:40:22.350Z,100321.84
2023-04-07T07:42:52.542Z,100323.12
2023-04-07T07:45:19.140Z,100328.28
2023-04-07T07:47:44.493Z,100324.64
2023-04-07T07:50:09.890Z,100335.42
2023-04-07T07:52:35.390Z,100329.59
2023-04-07T07:55:00.714Z,100329.39
2023-04-07T07:56:10.732Z,100333.27
2023-04-07T07:57:21.968Z,100321.31
2023-04-07T07:59:46.312Z,100323.52
2023-04-07T08:02:10.628Z,100339.91
2023-04-07T08:04:37.494Z,100334.30
2023-04-07T08:07:04.549Z,100343.03
2023-04-07T08:09:29.693Z,100334.61
2023-04-07T08:11:54.399Z,100341.06
2023-04-07T08:14:19.959Z,100332.80
2023-04-07T08:16:44.387Z,100336.56
2023-04-07T08:19:09.074Z,100332.91
2023-04-07T08:21:33.817Z,100332.17
2023-04-07T08:23:59.374Z,100339.17
2023-04-07T08:26:26.714Z,100336.36
2023-04-07T08:28:51.289Z,100332.68
2023-04-07T08:31:19.834Z,100331.60
2023-04-07T08:33:56.362Z,100331.48
2023-04-07T08:36:21.052Z,100333.56
2023-04-07T08:38:46.475Z,100335.29
2023-04-07T08:41:14.191Z,100336.90
2023-04-07T08:43:44.592Z,100339.93
2023-04-07T08:46:12.022Z,100344.75
2023-04-07T08:47:22.322Z,100342.63
2023-04-07T08:49:52.771Z,100340.75
2023-04-07T08:52:25.835Z,100340.11
2023-04-07T08:55:09.266Z,100340.61
2023-04-07T08:57:34.701Z,100336.05
2023-04-07T09:00:05.941Z,100343.25
2023-04-07T09:02:34.172Z,100342.17
2023-04-07T09:05:01.398Z,100340.30
2023-04-07T09:06:11.384Z,100346.78
2023-04-07T09:08:36.368Z,100343.41
2023-04-07T09:11:01.714Z,100335.88
2023-04-07T09:13:31.053Z,100338.34
2023-04-07T09:15:56.696Z,100341.92
2023-04-07T09:17:06.116Z,100342.59
2023-04-07T09:19:33.981Z,100337.50
2023-04-07T09:20:58.792Z,100347.02
2023-04-07T09:24:50.850Z,100341.22
2023-04-07T09:27:37.234Z,100341.70
2023-04-07T09:30:16.737Z,100341.14
2023-04-07T09:33:04.582Z,100339.41
2023-04-07T09:35:53.370Z,100344.31
2023-04-07T09:38:20.940Z,100346.93
2023-04-07T09:40:48.782Z,100343.35
2023-04-07T09:41:58.432Z,100347.19
2023-04-07T09:44:27.713Z,100333.84
2023-04-07T09:45:37.690Z,100348.33
2023-04-07T09:48:22.557Z,100347.62
2023-04-07T09:50:53.321Z,100353.20
2023-04-07T09:53:25.278Z,100350.19
2023-04-07T09:55:58.781Z,100352.00
2023-04-07T09:57:12.710Z,100352.11
2023-04-07T09:58:22.374Z,100352.53
2023-04-07T10:00:50.245Z,100353.11
2023-04-07T10:03:18.266Z,100351.53
2023-04-07T10:04:28.733Z,100352.61
2023-04-07T10:05:38.376Z,100354.34
2023-04-07T10:08:06.192Z,100351.84
2023-04-07T10:09:15.249Z,100360.69
2023-04-07T10:10:27.014Z,100358.53
2023-04-07T10:12:54.551Z,100354.15
2023-04-07T10:15:22.562Z,100359.61
2023-04-07T10:17:55.968Z,100359.52
2023-04-07T10:20:23.914Z,100354.92
2023-04-07T10:21:40.820Z,100351.03
2023-04-07T10:24:27.865Z,100354.75
2023-04-07T10:25:40.232Z,100362.30
2023-04-07T10:28:13.496Z,100356.02
2023-04-07T10:30:42.444Z,100358.16
2023-04-07T10:31:52.554Z,100363.60
2023-04-07T10:34:19.939Z,100358.59
2023-04-07T10:37:14.023Z,100359.35
2023-04-07T10:39:44.357Z,100359.00
2023-04-07T10:42:38.544Z,100354.58
2023-04-07T10:45:05.802Z,100358.81
2023-04-07T10:46:19.487Z,100357.68
2023-04-07T10:48:48.126Z,100353.06
2023-04-07T10:51:33.567Z,100359.47
2023-04-07T10:52:44.538Z,100356.83
2023-04-07T10:55:43.986Z,100348.80
2023-04-07T10:58:30.930Z,100349.83
2023-04-07T11:01:12.853Z,100356.19
2023-04-07T11:03:55.992Z,100358.50
2023-04-07T11:06:21.385Z,100347.08
2023-04-07T11:09:11.242Z,100348.16
2023-04-07T11:11:41.321Z,100347.42
2023-04-07T11:14:20.727Z,100341.86
2023-04-07T11:17:11.277Z,100351.91
2023-04-07T11:18:24.690Z,100349.77
2023-04-07T11:20:58.022Z,100348.42
2023-04-07T11:23:41.367Z,100342.63
2023-04-07T11:26:06.536Z,100337.92
2023-04-07T11:28:33.003Z,100337.23
2023-04-07T11:29:41.645Z,100341.27
2023-04-07T11:30:53.543Z,100340.17
2023-04-07T11:33:38.735Z,100343.91
2023-04-07T11:34:47.566Z,100342.79
2023-04-07T11:37:28.927Z,100334.85
2023-04-07T11:38:38.612Z,100336.31
2023-04-07T11:41:13.621Z,100339.16
2023-04-07T11:44:10.361Z,100329.55
2023-04-07T11:45:21.222Z,100339.09
2023-04-07T11:47:47.200Z,100329.70
2023-04-07T11:50:15.248Z,100345.92
2023-04-07T11:52:48.772Z,100337.70
2023-04-07T11:55:22.317Z,100333.06
2023-04-07T11:58:11.858Z,100339.53
2023-04-07T11:59:23.579Z,100345.72
2023-04-07T12:00:33.492Z,100336.78
2023-04-07T12:02:58.166Z,100333.33
2023-04-07T12:05:34.888Z,100336.06
2023-04-07T12:08:02.237Z,100331.79
2023-04-07T12:10:48.211Z,100320.27
2023-04-07T12:13:14.774Z,100327.67
2023-04-07T12:15:39.843Z,100334.91
2023-04-07T12:18:14.330Z,100323.89
2023-04-07T12:19:24.220Z,100330.84
2023-04-07T12:20:35.406Z,100343.06
2023-04-07T12:23:01.725Z,100338.46
2023-04-07T12:25:26.986Z,100330.00
2023-04-07T12:27:51.341Z,100323.14
2023-04-07T12:30:18.537Z,100323.41
2023-04-07T12:32:42.548Z,100320.45
2023-04-07T12:33:51.650Z,100325.59
2023-04-07T12:36:15.751Z,100326.22
2023-04-07T12:37:25.405Z,100331.45
2023-04-07T12:39:50.446Z,100314.80
2023-04-07T12:42:16.489Z,100322.75
2023-04-07T12:44:41.387Z,100318.81
2023-04-07T12:45:50.473Z,100326.84
2023-04-07T12:48:18.611Z,100320.55
2023-04-07T12:50:45.679Z,100307.07
2023-04-07T12:53:12.224Z,100321.33
2023-04-07T12:55:38.137Z,100321.33
2023-04-07T12:58:03.215Z,100315.05
2023-04-07T13:00:28.015Z,100307.47
2023-04-07T13:02:58.119Z,100312.86
2023-04-07T13:04:07.249Z,100318.37
2023-04-07T13:06:33.807Z,100317.98
2023-04-07T13:08:57.689Z,100311.97
2023-04-07T13:11:26.231Z,100314.92
2023-04-07T13:13:52.736Z,100316.81
2023-04-07T13:16:19.274Z,100315.14
2023-04-07T13:17:29.080Z,100315.13
2023-04-07T13:19:54.268Z,100315.60
2023-04-07T13:22:18.205Z,100327.00
2023-04-07T13:23:28.059Z,100321.33
2023-04-07T13:24:36.416Z,100318.27
2023-04-07T13:27:00.614Z,100315.88
2023-04-07T13:29:27.188Z,100317.97
2023-04-07T13:31:52.489Z,100315.99
2023-04-07T13:33:02.294Z,100323.81
2023-04-07T13:34:11.516Z,100324.20
2023-04-07T13:36:36.982Z,100316.16
2023-04-07T13:37:47.289Z,100320.30
2023-04-07T13:40:13.120Z,100316.06
2023-04-07T13:42:38.020Z,100318.63
2023-04-07T13:45:05.644Z,100322.58
2023-04-07T13:47:34.910Z,100323.55
2023-04-07T13:50:02.224Z,100321.57
2023-04-07T13:51:11.021Z,100322.91
2023-04-07T13:53:37.675Z,100327.42
2023-04-07T13:56:03.576Z,100335.78
2023-04-07T13:58:32.030Z,100332.16
2023-04-07T14:00:58.835Z,100327.30
2023-04-07T14:03:24.666Z,100327.44
2023-04-07T14:04:34.547Z,100330.72
2023-04-07T14:06:58.560Z,100326.22
2023-04-07T14:09:22.726Z,100328.78
2023-04-07T14:11:48.326Z,100329.50
2023-04-07T14:14:13.129Z,100334.20
2023-04-07T14:16:38.012Z,100328.09
2023-04-07T14:19:02.610Z,100328.22
2023-04-07T14:21:27.370Z,100330.42
2023-04-07T14:22:36.017Z,100327.95
2023-04-07T14:25:01.354Z,100321.80
2023-04-07T14:26:12.536Z,100333.21
2023-04-07T14:28:37.570Z,100329.05
2023-04-07T14:31:06.580Z,100331.99
2023-04-07T14:33:33.017Z,100326.73
2023-04-07T14:35:58.103Z,100332.13
2023-04-07T14:38:24.426Z,100336.39
2023-04-07T14:40:51.291Z,100334.06
2023-04-07T14:43:18.457Z,100341.91
2023-04-07T14:45:46.700Z,100327.56
2023-04-07T14:48:11.439Z,100339.94
2023-04-07T14:50:35.783Z,100338.82
2023-04-07T14:53:02.615Z,100328.87
2023-04-07T14:55:26.383Z,100330.00
2023-04-07T14:56:35.337Z,100332.42
2023-04-07T14:57:44.096Z,100336.09
2023-04-07T14:58:53.752Z,100333.16
2023-04-07T15:01:27.695Z,100330.98
2023-04-07T15:03:53.394Z,100326.34
2023-04-07T15:06:47.435Z,100323.42
2023-04-07T15:09:12.115Z,100324.06
2023-04-07T15:11:37.023Z,100329.42
2023-04-07T15:14:06.266Z,100334.70
2023-04-07T15:16:34.718Z,100337.12
2023-04-07T15:19:00.133Z,100340.73
2023-04-07T15:21:26.290Z,100341.73
2023-04-07T15:22:36.119Z,100345.13
2023-04-07T15:23:46.655Z,100347.95
2023-04-07T15:26:13.078Z,100336.70
2023-04-07T15:28:37.276Z,100344.16
2023-04-07T15:31:03.320Z,100338.06
2023-04-07T15:33:28.237Z,100337.95
2023-04-07T15:35:53.277Z,100337.30
2023-04-07T15:38:10.967Z,100345.13
2023-04-07T15:39:19.947Z,100349.31
2023-04-07T15:41:44.567Z,100337.42
2023-04-07T15:44:09.267Z,100348.58
2023-04-07T15:46:33.383Z,100341.82
2023-04-07T15:47:43.311Z,100335.18
2023-04-07T15:48:52.167Z,100341.06
2023-04-07T15:51:17.236Z,100332.80
2023-04-07T15:53:42.198Z,100335.61
2023-04-07T15:56:07.297Z,100333.88
2023-04-07T15:58:33.045Z,100327.97
2023-04-07T16:00:59.477Z,100335.61
2023-04-07T16:02:13.704Z,100332.52
2023-04-07T16:03:23.112Z,100331.43
2023-04-07T16:05:47.303Z,100328.73
2023-04-07T16:08:13.696Z,100334.85
2023-04-07T16:10:37.369Z,100332.16
2023-04-07T16:13:01.393Z,100327.12
2023-04-07T16:15:44.896Z,100325.39
2023-04-07T16:18:15.046Z,100324.03
2023-04-07T16:20:43.306Z,100326.48
2023-04-07T16:23:10.224Z,100330.42
2023-04-07T16:25:35.906Z,100332.91
2023-04-07T16:28:05.033Z,100344.28
2023-04-07T16:30:29.768Z,100338.73
2023-04-07T16:33:03.590Z,100345.97
2023-04-07T16:35:30.710Z,100345.73
2023-04-07T16:36:40.203Z,100349.11
2023-04-07T16:39:05.297Z,100339.89
2023-04-07T16:41:32.592Z,100341.70
2023-04-07T16:43:57.040Z,100347.58
2023-04-07T16:46:26.251Z,100355.42
2023-04-07T16:48:51.678Z,100353.70
2023-04-07T16:51:21.110Z,100354.34
2023-04-07T16:53:47.948Z,100369.02
2023-04-07T16:56:17.716Z,100365.27
2023-04-07T16:58:41.332Z,100374.68
2023-04-07T17:01:06.042Z,100376.49
2023-04-07T17:03:31.285Z,100382.12
2023-04-07T17:05:55.835Z,100395.83
2023-04-07T17:08:23.031Z,100405.73
2023-04-07T17:10:47.173Z,100404.46
2023-04-07T17:13:12.981Z,100420.55
2023-04-07T17:15:37.850Z,100422.08
2023-04-07T17:18:03.051Z,100427.59
2023-04-07T17:20:27.631Z,100429.71
2023-04-07T17:22:53.345Z,100424.98
2023-04-07T17:25:21.892Z,100435.64
2023-04-07T17:27:47.656Z,100438.11
2023-04-07T17:30:13.551Z,100445.57
2023-04-07T17:31:21.931Z,100447.41
2023-04-07T17:33:47.201Z,100446.64
2023-04-07T17:34:56.669Z,100447.30
2023-04-07T17:36:06.001Z,100453.64
2023-04-07T17:37:15.080Z,100453.87
2023-04-07T17:40:00.897Z,100452.56
2023-04-07T17:42:26.681Z,100457.11
2023-04-07T17:44:52.259Z,100460.54
2023-04-07T17:47:17.186Z,100465.38
2023-04-07T17:48:26.634Z,100468.31
2023-04-07T17:50:50.619Z,100473.36
2023-04-07T17:51:59.803Z,100471.34
2023-04-07T17:54:29.810Z,100473.70
2023-04-07T17:56:53.406Z,100473.03
2023-04-07T17:58:03.102Z,100477.53
2023-04-07T18:00:28.172Z,100474.22
2023-04-07T18:02:53.518Z,100470.78
2023-04-07T18:04:06.328Z,100481.41
2023-04-07T18:05:14.679Z,100482.39
2023-04-07T18:06:24.372Z,100481.41
2023-04-07T18:07:33.875Z,100490.36
2023-04-07T18:10:01.711Z,100491.66
2023-04-07T18:11:11.037Z,100485.48
2023-04-07T18:12:21.164Z,100489.06
2023-04-07T18:14:45.243Z,100485.70
2023-04-07T18:17:09.389Z,100479.36
2023-04-07T18:18:19.767Z,100476.72
2023-04-07T18:19:30.837Z,100482.88
2023-04-07T18:21:57.394Z,100468.59
2023-04-07T18:23:09.909Z,100476.33
2023-04-07T18:24:18.534Z,100476.33
2023-04-07T18:26:43.626Z,100472.59
2023-04-07T18:29:10.049Z,100470.34
2023-04-07T18:30:19.889Z,100475.50
2023-04-07T18:32:46.082Z,100470.02
2023-04-07T18:33:55.169Z,100476.23
2023-04-07T18:35:05.463Z,100479.92
2023-04-07T18:37:30.647Z,100470.02
2023-04-07T18:38:40.572Z,100477.86
2023-04-07T18:41:06.751Z,100478.86
2023-04-07T18:42:15.499Z,100480.33
2023-04-07T18:44:40.724Z,100475.52
2023-04-07T18:45:49.402Z,100475.10
2023-04-07T18:46:59.212Z,100476.58
2023-04-07T18:48:08.197Z,100474.11
2023-04-07T18:50:32.286Z,100467.76
2023-04-07T18:51:45.273Z,100474.77
2023-04-07T18:54:09.536Z,100467.24
2023-04-07T18:55:18.398Z,100476.80
2023-04-07T18:56:28.021Z,100473.03
2023-04-07T18:58:57.292Z,100463.56
2023-04-07T19:01:24.660Z,100463.37
2023-04-07T19:03:48.982Z,100463.66
2023-04-07T19:04:58.674Z,100469.61
2023-04-07T19:07:22.631Z,100471.22
2023-04-07T19:11:27.385Z,100469.30
2023-04-07T19:13:56.344Z,100469.19
2023-04-07T19:16:27.936Z,100469.81
2023-04-07T19:17:38.353Z,100474.87
2023-04-07T19:18:47.472Z,100468.63
2023-04-07T19:21:13.487Z,100470.35
2023-04-07T19:22:26.027Z,100472.07
2023-04-07T19:25:07.893Z,100472.73
2023-04-07T19:26:17.603Z,100473.59
2023-04-07T19:29:11.083Z,100477.67
2023-04-07T19:34:32.990Z,100470.14
2023-04-07T19:35:41.726Z,100478.02
2023-04-07T19:38:06.953Z,100471.66
2023-04-07T19:40:32.648Z,100473.38
2023-04-07T19:42:56.841Z,100479.62
2023-04-07T19:44:09.254Z,100478.86
2023-04-07T19:46:34.670Z,100472.84
2023-04-07T19:48:59.230Z,100474.55
2023-04-07T19:50:17.127Z,100484.03
2023-04-07T19:52:44.791Z,100483.72
2023-04-07T19:55:10.774Z,100475.42
2023-04-07T19:57:37.601Z,100479.19
2023-04-07T20:00:01.536Z,100478.75
2023-04-07T20:02:35.236Z,100474.36
2023-04-07T20:04:59.381Z,100482.00
2023-04-07T20:07:24.108Z,100466.14
2023-04-07T20:08:33.237Z,100481.45
2023-04-07T20:10:57.426Z,100480.70
2023-04-07T20:12:07.183Z,100487.57
2023-04-07T20:13:15.764Z,100482.08
2023-04-07T20:14:25.794Z,100486.72
2023-04-07T20:16:50.583Z,100479.83
2023-04-07T20:17:59.627Z,100485.77
2023-04-07T20:19:08.965Z,100485.43
2023-04-07T20:20:19.418Z,100481.97
2023-04-07T20:21:28.613Z,100485.43
2023-04-07T20:23:53.087Z,100478.86
2023-04-07T20:25:05.018Z,100476.72
2023-04-07T20:26:15.450Z,100485.77
2023-04-07T20:27:26.945Z,100484.25
2023-04-07T20:29:51.527Z,100485.98
2023-04-07T20:32:15.904Z,100484.03
2023-04-07T20:34:43.093Z,100471.66
2023-04-07T20:35:52.471Z,100482.52
2023-04-07T20:38:19.234Z,100481.23
2023-04-07T20:40:44.603Z,100474.03
2023-04-07T20:43:10.295Z,100473.70
2023-04-07T20:45:36.259Z,100484.36
2023-04-07T20:48:02.019Z,100482.80
2023-04-07T20:50:26.076Z,100478.24
2023-04-07T20:52:54.329Z,100477.59
2023-04-07T20:54:04.131Z,100488.30
2023-04-07T20:55:14.013Z,100482.66
2023-04-07T20:57:41.364Z,100478.60
2023-04-07T21:00:09.774Z,100477.92
2023-04-07T21:02:34.513Z,100475.91
2023-04-07T21:03:48.343Z,100485.73
2023-04-07T21:06:13.465Z,100484.67
2023-04-07T21:07:22.441Z,100486.52
2023-04-07T21:09:45.977Z,100479.98
2023-04-07T21:12:30.130Z,100482.50
2023-04-07T21:14:54.778Z,100484.20
2023-04-07T21:16:06.258Z,100480.50
2023-04-07T21:18:31.516Z,100479.92
2023-04-07T21:19:40.947Z,100483.02
2023-04-07T21:20:50.301Z,100483.02
2023-04-07T21:22:00.576Z,100477.44
2023-04-07T21:24:24.972Z,100478.88
2023-04-07T21:25:34.634Z,100473.33
2023-04-07T21:27:59.182Z,100470.23
2023-04-07T21:29:08.791Z,100472.38
2023-04-07T21:31:34.324Z,100470.12
2023-04-07T21:34:01.037Z,100471.55
2023-04-07T21:36:26.559Z,100473.07
2023-04-07T21:38:52.013Z,100474.39
2023-04-07T21:41:17.277Z,100463.98
2023-04-07T21:43:41.714Z,100477.39
2023-04-07T21:46:05.818Z,100465.58
2023-04-07T21:48:32.018Z,100467.84
2023-04-07T21:50:56.946Z,100457.09
2023-04-07T21:53:22.387Z,100462.67
2023-04-07T21:54:31.952Z,100462.11
2023-04-07T21:55:40.828Z,100469.22
2023-04-07T21:58:06.150Z,100465.85
2023-04-07T22:00:32.200Z,100459.83
2023-04-07T22:02:58.896Z,100469.11
2023-04-07T22:04:08.897Z,100470.22
2023-04-07T22:06:36.435Z,100462.00
2023-04-07T22:09:02.635Z,100459.47
2023-04-07T22:11:27.674Z,100466.38
2023-04-07T22:12:36.363Z,100467.27
2023-04-07T22:15:02.624Z,100462.91
2023-04-07T22:17:28.498Z,100452.67
2023-04-07T22:18:37.052Z,100456.52
2023-04-07T22:19:46.349Z,100461.11
2023-04-07T22:20:56.003Z,100458.94
2023-04-07T22:23:22.401Z,100458.32
2023-04-07T22:25:49.037Z,100454.78
2023-04-07T22:28:14.150Z,100455.05
2023-04-07T22:30:38.244Z,100451.77
2023-04-07T22:33:01.981Z,100444.20
2023-04-07T22:34:11.951Z,100447.00
2023-04-07T22:36:35.850Z,100446.89
2023-04-07T22:39:00.107Z,100445.11
2023-04-07T22:41:26.307Z,100438.77
2023-04-07T22:43:51.159Z,100439.55
2023-04-07T22:45:01.071Z,100441.23
2023-04-07T22:47:25.977Z,100442.12
2023-04-07T22:48:35.558Z,100441.97
2023-04-07T22:49:47.921Z,100443.81
2023-04-07T22:52:11.786Z,100438.43
2023-04-07T22:53:21.998Z,100444.64
2023-04-07T22:54:33.038Z,100445.82
2023-04-07T22:55:43.145Z,100436.66
2023-04-07T22:58:07.386Z,100431.01
2023-04-07T22:59:16.042Z,100441.63
2023-04-07T23:01:48.863Z,100438.94
2023-04-07T23:04:12.746Z,100443.08
2023-04-07T23:06:36.459Z,100433.48
2023-04-07T23:09:00.643Z,100429.73
2023-04-07T23:10:09.619Z,100435.12
2023-04-07T23:11:18.516Z,100425.42
2023-04-07T23:13:43.807Z,100428.00
2023-04-07T23:16:13.514Z,100429.19
2023-04-07T23:17:22.288Z,100426.63
2023-04-07T23:18:32.504Z,100428.77
2023-04-07T23:20:57.500Z,100429.54
2023-04-07T23:23:24.104Z,100423.83